ジュノー の空港の天気 - METARとTAF

ジュノー国際空港 ( PAJN / JNU ) - アメリカ アラスカ州ジュノー
飛行場実況気象(Metar)
観測時間10/19 19:53 AKDT (10/20 03:53 UTC)
風向・風速東 3m/s
視程10km以上
天気現象弱い雨
少しの雲 雲底高度 980m
全天を覆う雲 雲底高度 1280m
気温5.6℃
湿度96%
気圧1003.8hPa
METARPAJN 200353Z 08006KT 10SM -RA FEW032 OVC042 06/05 A2964 RMK AO2 SLP038 P0002 T00560050
過去の天気等 Google飛行場航空写真 Wunderground天気予報

過去48時間のMETAR

飛行場予報(TAF)
発表時間: 10/19 15:20 AKDT (10/19 23:20 UTC)
予報対象時間: 19日16時 AKDT ~ 20日16時 AKDT
風向・風速東北東 3m/s
視程10km以上
天気現象周辺でしゅう雨
少しの雲 雲底高度 300m
全天の8割程度の雲 雲底高度 1520m
全天を覆う雲 雲底高度 2440m
19日16時 AKDT ~ 19日17時 AKDT に一時的に
風向・風速南東 8m/s
天気現象弱いしゅう雨
19日21時 AKDT から
風向・風速静穏
視程10km以上
全天の4割程度の雲 雲底高度 610m
全天の8割程度の雲 雲底高度 1520m
PAJN 192320Z 2000/2024 07006KT P6SM VCSH FEW010 BKN050 OVC080
TEMPO 2000/2001 13015KT -SHRA
FM200500 00000KT P6SM SCT020 BKN050